createdAt,value
2024-03-01T00:00:53.424Z,96484.22
2024-03-01T00:11:15.865Z,96476.78
2024-03-01T06:01:57.327Z,96310.34
2024-03-01T06:11:59.759Z,96316.53
2024-03-01T06:22:02.196Z,96331.31
2024-03-01T06:32:05.097Z,96327.78
2024-03-01T06:42:07.651Z,96330.22
2024-03-01T06:52:11.525Z,96346.03
2024-03-01T07:02:14.197Z,96341.28
2024-03-01T07:12:16.586Z,96325.84
2024-03-01T07:22:19.012Z,96334.72
2024-03-01T07:32:21.363Z,96336.69
2024-03-01T07:42:24.143Z,96325.22
2024-03-01T07:52:30.159Z,96328.38
2024-03-01T08:02:32.606Z,96321.13
2024-03-01T08:12:35.540Z,96342.69
2024-03-01T08:22:38.014Z,96351.59
2024-03-01T08:32:46.845Z,96360.38
2024-03-01T08:42:50.408Z,96366.25
2024-03-01T08:52:54.073Z,96373.00
2024-03-01T09:02:56.797Z,96385.38
2024-03-01T09:12:59.640Z,96375.81
2024-03-01T09:23:04.546Z,96379.25
2024-03-01T09:33:20.388Z,96379.03
2024-03-01T09:43:44.116Z,96384.56
2024-03-01T09:54:14.902Z,96401.44
2024-03-01T10:04:32.929Z,96405.91
2024-03-01T10:14:56.445Z,96400.91
2024-03-01T10:25:39.323Z,96383.94
2024-03-01T10:36:01.573Z,96372.50
2024-03-01T10:46:12.001Z,96367.22
2024-03-01T10:56:15.942Z,96338.75
2024-03-01T11:06:30.324Z,96338.75
2024-03-01T11:16:36.785Z,96332.22
2024-03-01T11:26:45.873Z,96322.59
2024-03-01T11:36:58.543Z,96306.75
2024-03-01T11:47:21.903Z,96329.78
2024-03-01T11:57:38.626Z,96302.84
2024-03-01T12:08:00.398Z,96302.03
2024-03-01T12:18:35.304Z,96320.97
2024-03-01T12:28:50.424Z,96317.56
2024-03-01T12:39:02.287Z,96306.75
2024-03-01T12:49:27.186Z,96294.59
2024-03-01T12:59:41.548Z,96309.13
2024-03-01T13:09:47.189Z,96310.00
2024-03-01T13:20:00.926Z,96315.53
2024-03-01T13:30:10.146Z,96309.59
2024-03-01T13:40:21.609Z,96318.94
2024-03-01T13:50:32.299Z,96303.69
2024-03-01T14:00:35.430Z,96309.31
2024-03-01T14:10:38.650Z,96303.56
2024-03-01T14:20:40.992Z,96291.00
2024-03-01T14:30:45.876Z,96282.59
2024-03-01T14:40:56.552Z,96286.31
2024-03-01T14:51:05.971Z,96271.59
2024-03-01T15:01:09.339Z,96277.97
2024-03-01T15:11:26.618Z,96279.44
2024-03-01T15:21:29.020Z,96290.13
2024-03-01T15:31:31.532Z,96278.88
2024-03-01T15:41:34.941Z,96281.13
2024-03-01T15:51:37.312Z,96287.72
2024-03-01T16:01:39.849Z,96294.53
2024-03-01T16:11:43.889Z,96295.84
2024-03-01T16:21:46.556Z,96308.53
2024-03-01T16:31:50.001Z,96326.13
2024-03-01T16:41:53.863Z,96344.31
2024-03-01T16:51:59.324Z,96354.47
2024-03-01T17:02:03.118Z,96362.97
2024-03-01T17:12:05.727Z,96364.41
2024-03-01T17:22:09.914Z,96371.81
2024-03-01T17:32:12.603Z,96373.31
2024-03-01T17:42:14.981Z,96383.34
2024-03-01T17:52:17.360Z,96371.09
2024-03-01T18:02:19.845Z,96366.34
2024-03-01T18:12:22.241Z,96382.69
2024-03-01T18:22:26.161Z,96381.00
2024-03-01T18:32:28.579Z,96408.31
2024-03-01T18:42:30.974Z,96399.03
2024-03-01T18:52:33.368Z,96403.81
2024-03-01T19:02:36.255Z,96398.69
2024-03-01T19:12:38.746Z,96403.03
2024-03-01T19:22:41.209Z,96393.38
2024-03-01T19:32:44.700Z,96388.28
2024-03-01T19:42:47.426Z,96394.09
2024-03-01T19:52:50.341Z,96373.75
2024-03-01T20:02:52.739Z,96371.69
2024-03-01T20:12:55.098Z,96377.22
2024-03-01T20:22:57.493Z,96364.94
2024-03-01T20:32:59.956Z,96364.13
2024-03-01T20:43:02.915Z,96359.19
2024-03-01T20:53:06.640Z,96348.56
2024-03-01T21:03:09.247Z,96349.38
2024-03-01T21:13:11.715Z,96350.97
2024-03-01T21:23:14.224Z,96356.34
2024-03-01T21:33:16.900Z,96343.09
2024-03-01T21:43:19.642Z,96338.53
2024-03-01T21:53:22.099Z,96336.59
2024-03-01T22:10:11.123Z,96337.13
2024-03-01T22:20:13.736Z,96334.41
2024-03-01T22:30:16.498Z,96323.53
2024-03-01T22:40:19.030Z,96320.13
2024-03-01T22:50:25.151Z,96335.59
2024-03-01T23:10:16.478Z,96328.59
2024-03-01T23:20:19.187Z,96340.53
2024-03-01T23:30:22.297Z,96316.81
2024-03-01T23:40:25.454Z,96314.22
2024-03-01T23:50:28.636Z,96312.69
